sensor_id;sensor_type;location;lat;lon;timestamp;pressure;altitude;pressure_sealevel;temperature;humidity
39083;BME280;24834;44.444;26.098;2022-11-11T00:05:07;101627.47;;;14.02;
39083;BME280;24834;44.444;26.098;2022-11-11T00:11:37;101625.38;;;13.94;
39083;BME280;24834;44.444;26.098;2022-11-11T00:17:58;101633.88;;;13.86;
39083;BME280;24834;44.444;26.098;2022-11-11T00:24:38;101619.09;;;13.85;
39083;BME280;24834;44.444;26.098;2022-11-11T00:31:24;101621.28;;;13.63;
39083;BME280;24834;44.444;26.098;2022-11-11T00:37:49;101622.59;;;13.66;
39083;BME280;24834;44.444;26.098;2022-11-11T00:44:13;101615.97;;;13.73;
39083;BME280;24834;44.444;26.098;2022-11-11T00:50:37;101607.53;;;13.61;
39083;BME280;24834;44.444;26.098;2022-11-11T00:57:18;101614.97;;;13.49;
39083;BME280;24834;44.444;26.098;2022-11-11T01:03:43;101608.63;;;13.40;
39083;BME280;24834;44.444;26.098;2022-11-11T01:10:05;101612.63;;;13.32;
39083;BME280;24834;44.444;26.098;2022-11-11T01:16:29;101603.94;;;13.02;
39083;BME280;24834;44.444;26.098;2022-11-11T01:22:52;101601.84;;;13.09;
39083;BME280;24834;44.444;26.098;2022-11-11T01:29:13;101601.75;;;13.44;
39083;BME280;24834;44.444;26.098;2022-11-11T01:35:37;101595.44;;;13.30;
39083;BME280;24834;44.444;26.098;2022-11-11T01:42:02;101599.09;;;13.59;
39083;BME280;24834;44.444;26.098;2022-11-11T01:48:37;101607.81;;;13.60;
39083;BME280;24834;44.444;26.098;2022-11-11T01:55:23;101620.16;;;13.84;
39083;BME280;24834;44.444;26.098;2022-11-11T02:01:48;101615.50;;;13.51;
39083;BME280;24834;44.444;26.098;2022-11-11T02:08:31;101625.00;;;13.52;
39083;BME280;24834;44.444;26.098;2022-11-11T02:14:57;101636.63;;;13.56;
39083;BME280;24834;44.444;26.098;2022-11-11T02:21:41;101647.44;;;13.60;
39083;BME280;24834;44.444;26.098;2022-11-11T02:28:09;101660.91;;;13.73;
39083;BME280;24834;44.444;26.098;2022-11-11T02:34:33;101676.50;;;13.70;
39083;BME280;24834;44.444;26.098;2022-11-11T02:40:56;101692.13;;;13.56;
39083;BME280;24834;44.444;26.098;2022-11-11T02:47:37;101692.94;;;13.41;
39083;BME280;24834;44.444;26.098;2022-11-11T02:53:59;101701.34;;;13.48;
39083;BME280;24834;44.444;26.098;2022-11-11T03:00:23;101695.03;;;13.54;
39083;BME280;24834;44.444;26.098;2022-11-11T03:06:47;101696.91;;;13.39;
39083;BME280;24834;44.444;26.098;2022-11-11T03:13:11;101704.78;;;13.59;
39083;BME280;24834;44.444;26.098;2022-11-11T03:19:33;101707.97;;;13.66;
39083;BME280;24834;44.444;26.098;2022-11-11T03:26:08;101706.88;;;13.77;
39083;BME280;24834;44.444;26.098;2022-11-11T03:32:36;101707.41;;;13.74;
39083;BME280;24834;44.444;26.098;2022-11-11T03:38:57;101702.06;;;13.94;
39083;BME280;24834;44.444;26.098;2022-11-11T03:45:26;101715.34;;;13.79;
39083;BME280;24834;44.444;26.098;2022-11-11T03:51:49;101729.59;;;13.88;
39083;BME280;24834;44.444;26.098;2022-11-11T03:58:11;101734.34;;;13.86;
39083;BME280;24834;44.444;26.098;2022-11-11T04:04:32;101734.09;;;13.98;
39083;BME280;24834;44.444;26.098;2022-11-11T04:11:14;101729.06;;;13.96;
39083;BME280;24834;44.444;26.098;2022-11-11T04:17:37;101744.31;;;14.20;
39083;BME280;24834;44.444;26.098;2022-11-11T04:24:03;101741.19;;;14.02;
39083;BME280;24834;44.444;26.098;2022-11-11T04:30:45;101740.41;;;14.02;
39083;BME280;24834;44.444;26.098;2022-11-11T04:37:06;101743.28;;;14.16;
39083;BME280;24834;44.444;26.098;2022-11-11T04:43:27;101756.28;;;13.97;
39083;BME280;24834;44.444;26.098;2022-11-11T04:49:48;101776.34;;;14.18;
39083;BME280;24834;44.444;26.098;2022-11-11T04:56:08;101786.69;;;14.09;
39083;BME280;24834;44.444;26.098;2022-11-11T05:02:47;101775.84;;;13.96;
39083;BME280;24834;44.444;26.098;2022-11-11T05:09:31;101803.63;;;13.98;
39083;BME280;24834;44.444;26.098;2022-11-11T05:15:53;101825.06;;;13.97;
39083;BME280;24834;44.444;26.098;2022-11-11T05:22:37;101828.47;;;13.92;
